sensor_id;sensor_type;location;lat;lon;timestamp;temperature;humidity
57753;DHT22;43583;53.132;6.574;2022-10-04T00:01:29;11.30;99.90
57753;DHT22;43583;53.132;6.574;2022-10-04T00:04:25;11.30;99.90
57753;DHT22;43583;53.132;6.574;2022-10-04T00:07:02;11.30;99.90
57753;DHT22;43583;53.132;6.574;2022-10-04T00:09:53;11.30;99.90
57753;DHT22;43583;53.132;6.574;2022-10-04T00:12:47;11.30;99.90
57753;DHT22;43583;53.132;6.574;2022-10-04T00:15:20;11.40;99.90
57753;DHT22;43583;53.132;6.574;2022-10-04T00:33:44;11.30;99.90
57753;DHT22;43583;53.132;6.574;2022-10-04T00:44:33;11.20;99.90
57753;DHT22;43583;53.132;6.574;2022-10-04T00:47:03;11.20;99.90
57753;DHT22;43583;53.132;6.574;2022-10-04T00:49:39;11.10;99.90
57753;DHT22;43583;53.132;6.574;2022-10-04T00:52:12;11.10;99.90
57753;DHT22;43583;53.132;6.574;2022-10-04T00:54:43;11.10;99.90
57753;DHT22;43583;53.132;6.574;2022-10-04T00:57:16;11.10;99.90
57753;DHT22;43583;53.132;6.574;2022-10-04T00:59:47;11.10;99.90
57753;DHT22;43583;53.132;6.574;2022-10-04T01:02:19;11.00;99.90
57753;DHT22;43583;53.132;6.574;2022-10-04T01:05:05;11.00;99.90
57753;DHT22;43583;53.132;6.574;2022-10-04T01:07:35;11.00;99.90
57753;DHT22;43583;53.132;6.574;2022-10-04T01:10:26;11.00;99.90
57753;DHT22;43583;53.132;6.574;2022-10-04T01:15:47;10.90;99.90
57753;DHT22;43583;53.132;6.574;2022-10-04T01:23:50;11.00;99.90
57753;DHT22;43583;53.132;6.574;2022-10-04T01:28:57;11.00;99.90
57753;DHT22;43583;53.132;6.574;2022-10-04T01:31:29;11.00;99.90
57753;DHT22;43583;53.132;6.574;2022-10-04T01:33:56;11.00;99.90
57753;DHT22;43583;53.132;6.574;2022-10-04T01:36:21;11.00;99.90
57753;DHT22;43583;53.132;6.574;2022-10-04T01:38:47;11.10;99.90
57753;DHT22;43583;53.132;6.574;2022-10-04T01:41:15;11.10;99.90
57753;DHT22;43583;53.132;6.574;2022-10-04T01:43:46;11.10;99.90
57753;DHT22;43583;53.132;6.574;2022-10-04T01:46:22;11.10;99.90
57753;DHT22;43583;53.132;6.574;2022-10-04T01:48:50;11.20;99.90
57753;DHT22;43583;53.132;6.574;2022-10-04T01:51:35;11.20;99.90
57753;DHT22;43583;53.132;6.574;2022-10-04T01:54:07;11.20;99.90
57753;DHT22;43583;53.132;6.574;2022-10-04T01:56:51;11.20;99.90
57753;DHT22;43583;53.132;6.574;2022-10-04T01:59:22;11.20;99.90
57753;DHT22;43583;53.132;6.574;2022-10-04T02:02:02;11.20;99.90
57753;DHT22;43583;53.132;6.574;2022-10-04T02:04:32;11.20;99.90
57753;DHT22;43583;53.132;6.574;2022-10-04T02:07:00;11.20;99.90
57753;DHT22;43583;53.132;6.574;2022-10-04T02:09:34;11.20;99.90
57753;DHT22;43583;53.132;6.574;2022-10-04T02:12:03;11.20;99.90
57753;DHT22;43583;53.132;6.574;2022-10-04T02:14:31;11.20;99.90
57753;DHT22;43583;53.132;6.574;2022-10-04T02:17:00;11.20;99.90
57753;DHT22;43583;53.132;6.574;2022-10-04T02:19:33;11.20;99.90
57753;DHT22;43583;53.132;6.574;2022-10-04T02:22:02;11.20;99.90
57753;DHT22;43583;53.132;6.574;2022-10-04T02:24:29;11.10;99.90
57753;DHT22;43583;53.132;6.574;2022-10-04T02:26:56;11.10;99.90
57753;DHT22;43583;53.132;6.574;2022-10-04T02:29:22;11.00;99.90
57753;DHT22;43583;53.132;6.574;2022-10-04T02:31:49;11.00;99.90
57753;DHT22;43583;53.132;6.574;2022-10-04T02:34:34;10.90;99.90
57753;DHT22;43583;53.132;6.574;2022-10-04T02:37:02;10.90;99.90
57753;DHT22;43583;53.132;6.574;2022-10-04T02:39:39;10.80;99.90
57753;DHT22;43583;53.132;6.574;2022-10-04T02:42:15;10.80;99.90
57753;DHT22;43583;53.132;6.574;2022-10-04T02:44:59;10.70;99.90
57753;DHT22;43583;53.132;6.574;2022-10-04T02:47:34;10.70;99.90
57753;DHT22;43583;53.132;6.574;2022-10-04T02:50:18;10.60;99.90
57753;DHT22;43583;53.132;6.574;2022-10-04T02:52:49;10.60;99.90
57753;DHT22;43583;53.132;6.574;2022-10-04T02:55:26;10.50;99.90
57753;DHT22;43583;53.132;6.574;2022-10-04T02:57:54;10.50;99.90
57753;DHT22;43583;53.132;6.574;2022-10-04T03:00:28;10.50;99.90
57753;DHT22;43583;53.132;6.574;2022-10-04T03:03:14;10.40;99.90
57753;DHT22;43583;53.132;6.574;2022-10-04T03:05:54;10.40;99.90
57753;DHT22;43583;53.132;6.574;2022-10-04T03:08:21;10.40;99.90
57753;DHT22;43583;53.132;6.574;2022-10-04T03:10:47;10.50;99.90
57753;DHT22;43583;53.132;6.574;2022-10-04T03:13:14;10.40;99.90
57753;DHT22;43583;53.132;6.574;2022-10-04T03:15:40;10.50;99.90
57753;DHT22;43583;53.132;6.574;2022-10-04T03:18:08;10.50;99.90
57753;DHT22;43583;53.132;6.574;2022-10-04T03:20:36;10.50;99.90
57753;DHT22;43583;53.132;6.574;2022-10-04T03:23:03;10.50;99.90
57753;DHT22;43583;53.132;6.574;2022-10-04T03:25:43;10.60;99.90
57753;DHT22;43583;53.132;6.574;2022-10-04T03:28:11;10.60;99.90
57753;DHT22;43583;53.132;6.574;2022-10-04T03:30:42;10.60;99.90
57753;DHT22;43583;53.132;6.574;2022-10-04T03:33:16;10.60;99.90
57753;DHT22;43583;53.132;6.574;2022-10-04T03:35:45;10.60;99.90
57753;DHT22;43583;53.132;6.574;2022-10-04T03:38:13;10.60;99.90
57753;DHT22;43583;53.132;6.574;2022-10-04T03:40:44;10.50;99.90
57753;DHT22;43583;53.132;6.574;2022-10-04T03:43:16;10.50;99.90
57753;DHT22;43583;53.132;6.574;2022-10-04T03:45:42;10.40;99.90
57753;DHT22;43583;53.132;6.574;2022-10-04T03:48:12;10.40;99.90
57753;DHT22;43583;53.132;6.574;2022-10-04T03:50:48;10.40;99.90
57753;DHT22;43583;53.132;6.574;2022-10-04T03:53:28;10.30;99.90
57753;DHT22;43583;53.132;6.574;2022-10-04T03:55:55;10.30;99.90
57753;DHT22;43583;53.132;6.574;2022-10-04T03:58:21;10.20;99.90
57753;DHT22;43583;53.132;6.574;2022-10-04T04:03:28;10.20;99.90
57753;DHT22;43583;53.132;6.574;2022-10-04T04:05:59;10.20;99.90
57753;DHT22;43583;53.132;6.574;2022-10-04T04:08:32;10.20;99.90
57753;DHT22;43583;53.132;6.574;2022-10-04T04:11:02;10.20;99.90
57753;DHT22;43583;53.132;6.574;2022-10-04T04:13:37;10.20;99.90
57753;DHT22;43583;53.132;6.574;2022-10-04T04:16:07;10.30;99.90
57753;DHT22;43583;53.132;6.574;2022-10-04T04:18:35;10.40;99.90
57753;DHT22;43583;53.132;6.574;2022-10-04T04:21:03;10.30;99.90
57753;DHT22;43583;53.132;6.574;2022-10-04T04:23:30;10.30;99.90
57753;DHT22;43583;53.132;6.574;2022-10-04T04:26:45;10.30;99.90
57753;DHT22;43583;53.132;6.574;2022-10-04T04:28:51;10.30;99.90
57753;DHT22;43583;53.132;6.574;2022-10-04T04:31:27;10.30;99.90
57753;DHT22;43583;53.132;6.574;2022-10-04T04:34:03;10.30;99.90
57753;DHT22;43583;53.132;6.574;2022-10-04T04:36:39;10.30;99.90
57753;DHT22;43583;53.132;6.574;2022-10-04T04:42:15;10.30;99.90
57753;DHT22;43583;53.132;6.574;2022-10-04T04:44:55;10.20;99.90
57753;DHT22;43583;53.132;6.574;2022-10-04T04:47:30;10.20;99.90
57753;DHT22;43583;53.132;6.574;2022-10-04T04:50:20;10.10;99.90
57753;DHT22;43583;53.132;6.574;2022-10-04T04:52:50;10.10;99.90
57753;DHT22;43583;53.132;6.574;2022-10-04T04:55:25;10.00;99.90
57753;DHT22;43583;53.132;6.574;2022-10-04T04:57:54;10.10;99.90
57753;DHT22;43583;53.132;6.574;2022-10-04T05:00:53;10.00;99.90
57753;DHT22;43583;53.132;6.574;2022-10-04T05:03:17;10.00;99.90
57753;DHT22;43583;53.132;6.574;2022-10-04T05:05:46;10.10;99.90
57753;DHT22;43583;53.132;6.574;2022-10-04T05:08:18;10.10;99.90
57753;DHT22;43583;53.132;6.574;2022-10-04T05:13:45;10.10;99.90
57753;DHT22;43583;53.132;6.574;2022-10-04T05:16:23;10.10;99.90
57753;DHT22;43583;53.132;6.574;2022-10-04T05:18:57;10.00;99.90
57753;DHT22;43583;53.132;6.574;2022-10-04T05:21:31;10.00;99.90
57753;DHT22;43583;53.132;6.574;2022-10-04T05:24:09;10.00;99.90
57753;DHT22;43583;53.132;6.574;2022-10-04T05:26:36;10.00;99.90
57753;DHT22;43583;53.132;6.574;2022-10-04T05:29:08;9.90;99.90
57753;DHT22;43583;53.132;6.574;2022-10-04T05:34:20;9.90;99.90
57753;DHT22;43583;53.132;6.574;2022-10-04T05:42:40;9.80;99.90
57753;DHT22;43583;53.132;6.574;2022-10-04T05:45:27;9.70;99.90
57753;DHT22;43583;53.132;6.574;2022-10-04T05:47:56;9.70;99.90
57753;DHT22;43583;53.132;6.574;2022-10-04T05:50:41;9.70;99.90
57753;DHT22;43583;53.132;6.574;2022-10-04T05:53:31;9.70;99.90
57753;DHT22;43583;53.132;6.574;2022-10-04T06:04:26;9.90;99.90
57753;DHT22;43583;53.132;6.574;2022-10-04T06:07:03;9.90;99.90
57753;DHT22;43583;53.132;6.574;2022-10-04T06:09:49;9.90;99.90
57753;DHT22;43583;53.132;6.574;2022-10-04T06:12:45;9.90;99.90
57753;DHT22;43583;53.132;6.574;2022-10-04T06:15:20;9.90;99.90
57753;DHT22;43583;53.132;6.574;2022-10-04T06:18:00;9.90;99.90
57753;DHT22;43583;53.132;6.574;2022-10-04T06:23:16;10.00;99.90
57753;DHT22;43583;53.132;6.574;2022-10-04T06:25:56;10.10;99.90
57753;DHT22;43583;53.132;6.574;2022-10-04T06:28:41;10.10;99.90
57753;DHT22;43583;53.132;6.574;2022-10-04T06:31:46;10.20;99.90
57753;DHT22;43583;53.132;6.574;2022-10-04T06:43:29;10.50;99.90
57753;DHT22;43583;53.132;6.574;2022-10-04T06:46:03;10.60;99.90
57753;DHT22;43583;53.132;6.574;2022-10-04T06:48:40;10.70;99.90
57753;DHT22;43583;53.132;6.574;2022-10-04T07:02:50;11.30;99.90
57753;DHT22;43583;53.132;6.574;2022-10-04T07:08:02;11.60;99.90
57753;DHT22;43583;53.132;6.574;2022-10-04T07:10:37;11.60;99.90
57753;DHT22;43583;53.132;6.574;2022-10-04T07:15:58;11.80;99.90
57753;DHT22;43583;53.132;6.574;2022-10-04T07:21:06;12.20;99.90
57753;DHT22;43583;53.132;6.574;2022-10-04T07:23:43;12.50;99.90
57753;DHT22;43583;53.132;6.574;2022-10-04T07:26:40;12.70;99.90
57753;DHT22;43583;53.132;6.574;2022-10-04T07:34:43;13.40;99.90
57753;DHT22;43583;53.132;6.574;2022-10-04T07:37:11;13.70;99.90
57753;DHT22;43583;53.132;6.574;2022-10-04T07:39:53;13.90;99.90
57753;DHT22;43583;53.132;6.574;2022-10-04T07:45:18;14.80;99.90
57753;DHT22;43583;53.132;6.574;2022-10-04T07:47:45;16.30;99.90
57753;DHT22;43583;53.132;6.574;2022-10-04T07:50:25;18.10;99.90
57753;DHT22;43583;53.132;6.574;2022-10-04T07:53:00;19.50;99.90
57753;DHT22;43583;53.132;6.574;2022-10-04T07:55:28;20.00;99.90
57753;DHT22;43583;53.132;6.574;2022-10-04T07:58:13;19.60;99.90
57753;DHT22;43583;53.132;6.574;2022-10-04T08:01:38;18.90;99.90
57753;DHT22;43583;53.132;6.574;2022-10-04T08:03:47;18.10;99.90
57753;DHT22;43583;53.132;6.574;2022-10-04T08:06:17;17.60;99.90
57753;DHT22;43583;53.132;6.574;2022-10-04T08:10:02;17.20;99.90
57753;DHT22;43583;53.132;6.574;2022-10-04T08:15:21;16.30;99.90
57753;DHT22;43583;53.132;6.574;2022-10-04T08:23:32;15.80;99.90
57753;DHT22;43583;53.132;6.574;2022-10-04T08:28:44;18.50;99.90
57753;DHT22;43583;53.132;6.574;2022-10-04T08:31:51;19.70;99.90
57753;DHT22;43583;53.132;6.574;2022-10-04T08:43:20;23.00;99.90
57753;DHT22;43583;53.132;6.574;2022-10-04T08:54:54;24.30;98.90
57753;DHT22;43583;53.132;6.574;2022-10-04T09:16:46;24.40;95.00
57753;DHT22;43583;53.132;6.574;2022-10-04T09:22:17;24.60;94.10
57753;DHT22;43583;53.132;6.574;2022-10-04T09:27:47;24.30;92.60
57753;DHT22;43583;53.132;6.574;2022-10-04T09:30:22;24.20;92.70
57753;DHT22;43583;53.132;6.574;2022-10-04T09:41:40;22.80;92.30
57753;DHT22;43583;53.132;6.574;2022-10-04T09:50:00;20.50;96.30
57753;DHT22;43583;53.132;6.574;2022-10-04T10:01:05;19.10;99.90
57753;DHT22;43583;53.132;6.574;2022-10-04T10:03:59;18.90;99.90
57753;DHT22;43583;53.132;6.574;2022-10-04T10:06:56;18.90;99.90
57753;DHT22;43583;53.132;6.574;2022-10-04T10:21:58;18.50;99.90
57753;DHT22;43583;53.132;6.574;2022-10-04T10:38:26;18.30;99.90
57753;DHT22;43583;53.132;6.574;2022-10-04T10:49:54;18.40;99.90
57753;DHT22;43583;53.132;6.574;2022-10-04T11:18:17;18.70;99.90
57753;DHT22;43583;53.132;6.574;2022-10-04T11:23:58;18.90;99.90
57753;DHT22;43583;53.132;6.574;2022-10-04T11:34:54;18.70;99.90
57753;DHT22;43583;53.132;6.574;2022-10-04T11:38:04;18.60;99.90
57753;DHT22;43583;53.132;6.574;2022-10-04T11:52:08;18.00;99.90
57753;DHT22;43583;53.132;6.574;2022-10-04T11:57:59;17.90;99.90
57753;DHT22;43583;53.132;6.574;2022-10-04T12:12:36;18.20;99.90
57753;DHT22;43583;53.132;6.574;2022-10-04T12:20:51;18.40;99.90
57753;DHT22;43583;53.132;6.574;2022-10-04T12:34:27;18.20;99.90
57753;DHT22;43583;53.132;6.574;2022-10-04T12:39:44;18.20;99.90
57753;DHT22;43583;53.132;6.574;2022-10-04T12:42:21;18.30;99.90
57753;DHT22;43583;53.132;6.574;2022-10-04T12:45:13;18.30;99.90
57753;DHT22;43583;53.132;6.574;2022-10-04T12:47:55;18.30;99.90
57753;DHT22;43583;53.132;6.574;2022-10-04T12:50:33;18.30;99.90
57753;DHT22;43583;53.132;6.574;2022-10-04T12:53:18;18.20;99.90
57753;DHT22;43583;53.132;6.574;2022-10-04T12:56:01;18.20;99.90
57753;DHT22;43583;53.132;6.574;2022-10-04T13:01:17;18.30;99.90
57753;DHT22;43583;53.132;6.574;2022-10-04T13:09:05;18.30;99.90
57753;DHT22;43583;53.132;6.574;2022-10-04T13:11:47;18.30;99.90
57753;DHT22;43583;53.132;6.574;2022-10-04T13:14:27;18.20;99.90
57753;DHT22;43583;53.132;6.574;2022-10-04T13:22:44;18.00;99.90
57753;DHT22;43583;53.132;6.574;2022-10-04T13:31:23;18.00;99.90
57753;DHT22;43583;53.132;6.574;2022-10-04T13:40:06;17.90;99.90
57753;DHT22;43583;53.132;6.574;2022-10-04T13:48:21;17.70;99.90
57753;DHT22;43583;53.132;6.574;2022-10-04T13:51:03;17.60;99.90
57753;DHT22;43583;53.132;6.574;2022-10-04T13:53:50;17.40;99.90
57753;DHT22;43583;53.132;6.574;2022-10-04T14:07:36;17.30;99.90
57753;DHT22;43583;53.132;6.574;2022-10-04T14:22:22;17.30;99.90
57753;DHT22;43583;53.132;6.574;2022-10-04T14:25:14;17.20;99.90
57753;DHT22;43583;53.132;6.574;2022-10-04T14:38:58;17.00;99.90
57753;DHT22;43583;53.132;6.574;2022-10-04T14:41:51;17.00;99.90
57753;DHT22;43583;53.132;6.574;2022-10-04T14:44:35;17.00;99.90
57753;DHT22;43583;53.132;6.574;2022-10-04T14:52:50;17.00;99.90
57753;DHT22;43583;53.132;6.574;2022-10-04T14:55:48;16.90;99.90
57753;DHT22;43583;53.132;6.574;2022-10-04T15:01:24;16.80;99.90
57753;DHT22;43583;53.132;6.574;2022-10-04T15:04:20;16.80;99.90
57753;DHT22;43583;53.132;6.574;2022-10-04T15:07:00;16.80;99.90
57753;DHT22;43583;53.132;6.574;2022-10-04T15:20:19;16.40;99.90
57753;DHT22;43583;53.132;6.574;2022-10-04T15:22:54;16.30;99.90
57753;DHT22;43583;53.132;6.574;2022-10-04T15:31:19;16.10;99.90
57753;DHT22;43583;53.132;6.574;2022-10-04T15:39:33;16.10;99.90
57753;DHT22;43583;53.132;6.574;2022-10-04T15:42:09;16.10;99.90
57753;DHT22;43583;53.132;6.574;2022-10-04T15:47:35;16.20;99.90
57753;DHT22;43583;53.132;6.574;2022-10-04T15:56:04;16.20;99.90
57753;DHT22;43583;53.132;6.574;2022-10-04T17:09:21;14.70;99.90
57753;DHT22;43583;53.132;6.574;2022-10-04T17:20:44;14.50;99.90
57753;DHT22;43583;53.132;6.574;2022-10-04T17:27:13;14.40;99.90
57753;DHT22;43583;53.132;6.574;2022-10-04T17:33:16;14.30;99.90
57753;DHT22;43583;53.132;6.574;2022-10-04T17:38:35;14.20;99.90
57753;DHT22;43583;53.132;6.574;2022-10-04T17:41:16;14.20;99.90
57753;DHT22;43583;53.132;6.574;2022-10-04T17:47:35;14.20;99.90
57753;DHT22;43583;53.132;6.574;2022-10-04T17:53:48;14.30;99.90
57753;DHT22;43583;53.132;6.574;2022-10-04T17:56:38;14.30;99.90
57753;DHT22;43583;53.132;6.574;2022-10-04T17:59:25;14.30;99.90
57753;DHT22;43583;53.132;6.574;2022-10-04T18:02:14;14.40;99.90
57753;DHT22;43583;53.132;6.574;2022-10-04T18:04:58;14.40;99.90
57753;DHT22;43583;53.132;6.574;2022-10-04T18:10:45;14.50;99.90
57753;DHT22;43583;53.132;6.574;2022-10-04T18:13:20;14.50;99.90
57753;DHT22;43583;53.132;6.574;2022-10-04T18:18:39;14.50;99.90
57753;DHT22;43583;53.132;6.574;2022-10-04T18:21:28;14.50;99.90
57753;DHT22;43583;53.132;6.574;2022-10-04T18:24:16;14.50;99.90
57753;DHT22;43583;53.132;6.574;2022-10-04T18:26:57;14.50;99.90
57753;DHT22;43583;53.132;6.574;2022-10-04T18:29:37;14.50;99.90
57753;DHT22;43583;53.132;6.574;2022-10-04T18:35:30;14.50;99.90
57753;DHT22;43583;53.132;6.574;2022-10-04T18:40:33;14.50;99.90
57753;DHT22;43583;53.132;6.574;2022-10-04T18:42:59;14.50;99.90
57753;DHT22;43583;53.132;6.574;2022-10-04T18:45:31;14.50;99.90
57753;DHT22;43583;53.132;6.574;2022-10-04T18:48:13;14.50;99.90
57753;DHT22;43583;53.132;6.574;2022-10-04T18:50:40;14.50;99.90
57753;DHT22;43583;53.132;6.574;2022-10-04T18:55:59;14.60;99.90
57753;DHT22;43583;53.132;6.574;2022-10-04T19:05:29;14.70;99.90
57753;DHT22;43583;53.132;6.574;2022-10-04T19:10:41;14.80;99.90
57753;DHT22;43583;53.132;6.574;2022-10-04T19:16:41;14.80;99.90
57753;DHT22;43583;53.132;6.574;2022-10-04T19:19:20;14.80;99.90
57753;DHT22;43583;53.132;6.574;2022-10-04T19:22:18;14.80;99.90
57753;DHT22;43583;53.132;6.574;2022-10-04T19:33:41;14.90;99.90
57753;DHT22;43583;53.132;6.574;2022-10-04T19:39:34;14.90;99.90
57753;DHT22;43583;53.132;6.574;2022-10-04T19:44:36;15.00;99.90
57753;DHT22;43583;53.132;6.574;2022-10-04T19:49:52;15.00;99.90
57753;DHT22;43583;53.132;6.574;2022-10-04T19:52:22;15.00;99.90
57753;DHT22;43583;53.132;6.574;2022-10-04T19:55:25;15.00;99.90
57753;DHT22;43583;53.132;6.574;2022-10-04T19:58:19;15.00;99.90
57753;DHT22;43583;53.132;6.574;2022-10-04T20:00:47;15.00;99.90
57753;DHT22;43583;53.132;6.574;2022-10-04T20:03:13;15.00;99.90
57753;DHT22;43583;53.132;6.574;2022-10-04T20:08:11;15.00;99.90
57753;DHT22;43583;53.132;6.574;2022-10-04T20:10:38;14.90;99.90
57753;DHT22;43583;53.132;6.574;2022-10-04T20:13:05;14.90;99.90
57753;DHT22;43583;53.132;6.574;2022-10-04T20:26:05;15.00;99.90
57753;DHT22;43583;53.132;6.574;2022-10-04T20:31:01;15.00;99.90
57753;DHT22;43583;53.132;6.574;2022-10-04T20:36:02;14.90;99.90
57753;DHT22;43583;53.132;6.574;2022-10-04T20:43:55;14.90;99.90
57753;DHT22;43583;53.132;6.574;2022-10-04T20:46:22;14.90;99.90
57753;DHT22;43583;53.132;6.574;2022-10-04T20:48:49;14.90;99.90
57753;DHT22;43583;53.132;6.574;2022-10-04T20:51:18;14.90;99.90
57753;DHT22;43583;53.132;6.574;2022-10-04T20:53:46;14.90;99.90
57753;DHT22;43583;53.132;6.574;2022-10-04T20:56:21;14.90;99.90
57753;DHT22;43583;53.132;6.574;2022-10-04T20:59:03;14.80;99.90
57753;DHT22;43583;53.132;6.574;2022-10-04T21:01:32;14.90;99.90
57753;DHT22;43583;53.132;6.574;2022-10-04T21:06:56;14.90;99.90
57753;DHT22;43583;53.132;6.574;2022-10-04T21:09:23;14.90;99.90
57753;DHT22;43583;53.132;6.574;2022-10-04T21:11:51;14.90;99.90
57753;DHT22;43583;53.132;6.574;2022-10-04T21:14:34;14.90;99.90
57753;DHT22;43583;53.132;6.574;2022-10-04T21:17:01;14.80;99.90
57753;DHT22;43583;53.132;6.574;2022-10-04T21:25:25;14.90;99.90
57753;DHT22;43583;53.132;6.574;2022-10-04T21:27:49;14.90;99.90
57753;DHT22;43583;53.132;6.574;2022-10-04T21:30:17;14.80;99.90
57753;DHT22;43583;53.132;6.574;2022-10-04T21:32:44;14.90;99.90
57753;DHT22;43583;53.132;6.574;2022-10-04T21:35:11;14.80;99.90
57753;DHT22;43583;53.132;6.574;2022-10-04T21:37:36;14.90;99.90
57753;DHT22;43583;53.132;6.574;2022-10-04T21:40:03;14.80;99.90
57753;DHT22;43583;53.132;6.574;2022-10-04T21:42:29;14.80;99.90
57753;DHT22;43583;53.132;6.574;2022-10-04T21:44:55;14.80;99.90
57753;DHT22;43583;53.132;6.574;2022-10-04T21:47:20;14.90;99.90
57753;DHT22;43583;53.132;6.574;2022-10-04T21:49:47;14.90;99.90
57753;DHT22;43583;53.132;6.574;2022-10-04T21:52:13;14.90;99.90
57753;DHT22;43583;53.132;6.574;2022-10-04T21:54:41;14.80;99.90
57753;DHT22;43583;53.132;6.574;2022-10-04T21:57:07;14.80;99.90
57753;DHT22;43583;53.132;6.574;2022-10-04T21:59:33;14.80;99.90
57753;DHT22;43583;53.132;6.574;2022-10-04T22:01:58;14.80;99.90
57753;DHT22;43583;53.132;6.574;2022-10-04T22:04:24;14.80;99.90
57753;DHT22;43583;53.132;6.574;2022-10-04T22:06:50;14.80;99.90
57753;DHT22;43583;53.132;6.574;2022-10-04T22:09:15;14.80;99.90
57753;DHT22;43583;53.132;6.574;2022-10-04T22:11:41;14.80;99.90
57753;DHT22;43583;53.132;6.574;2022-10-04T22:14:06;14.80;99.90
57753;DHT22;43583;53.132;6.574;2022-10-04T22:16:32;14.80;99.90
57753;DHT22;43583;53.132;6.574;2022-10-04T22:18:58;14.80;99.90
57753;DHT22;43583;53.132;6.574;2022-10-04T22:21:23;14.80;99.90
57753;DHT22;43583;53.132;6.574;2022-10-04T22:23:49;14.80;99.90
57753;DHT22;43583;53.132;6.574;2022-10-04T22:26:20;14.80;99.90
57753;DHT22;43583;53.132;6.574;2022-10-04T22:28:50;14.80;99.90
57753;DHT22;43583;53.132;6.574;2022-10-04T22:31:18;14.80;99.90
57753;DHT22;43583;53.132;6.574;2022-10-04T22:33:46;14.80;99.90
57753;DHT22;43583;53.132;6.574;2022-10-04T22:36:22;14.80;99.90
57753;DHT22;43583;53.132;6.574;2022-10-04T22:41:38;14.80;99.90
57753;DHT22;43583;53.132;6.574;2022-10-04T22:44:26;14.80;99.90
57753;DHT22;43583;53.132;6.574;2022-10-04T22:46:55;14.80;99.90
57753;DHT22;43583;53.132;6.574;2022-10-04T22:49:26;14.80;99.90
57753;DHT22;43583;53.132;6.574;2022-10-04T22:51:54;14.80;99.90
57753;DHT22;43583;53.132;6.574;2022-10-04T22:54:23;14.90;99.90
57753;DHT22;43583;53.132;6.574;2022-10-04T22:56:50;14.90;99.90
57753;DHT22;43583;53.132;6.574;2022-10-04T22:59:17;14.90;99.90
57753;DHT22;43583;53.132;6.574;2022-10-04T23:01:44;14.90;99.90
57753;DHT22;43583;53.132;6.574;2022-10-04T23:04:21;14.90;99.90
57753;DHT22;43583;53.132;6.574;2022-10-04T23:06:47;14.90;99.90
57753;DHT22;43583;53.132;6.574;2022-10-04T23:09:13;14.90;99.90
57753;DHT22;43583;53.132;6.574;2022-10-04T23:11:38;14.90;99.90
57753;DHT22;43583;53.132;6.574;2022-10-04T23:14:04;14.90;99.90
57753;DHT22;43583;53.132;6.574;2022-10-04T23:16:30;14.90;99.90
57753;DHT22;43583;53.132;6.574;2022-10-04T23:21:34;15.00;99.90
57753;DHT22;43583;53.132;6.574;2022-10-04T23:26:42;15.00;99.90
57753;DHT22;43583;53.132;6.574;2022-10-04T23:29:26;15.00;99.90
57753;DHT22;43583;53.132;6.574;2022-10-04T23:31:54;15.00;99.90
57753;DHT22;43583;53.132;6.574;2022-10-04T23:36:55;15.00;99.90
57753;DHT22;43583;53.132;6.574;2022-10-04T23:39:27;15.00;99.90
57753;DHT22;43583;53.132;6.574;2022-10-04T23:41:54;15.00;99.90
57753;DHT22;43583;53.132;6.574;2022-10-04T23:44:34;15.00;99.90
57753;DHT22;43583;53.132;6.574;2022-10-04T23:47:01;15.00;99.90
57753;DHT22;43583;53.132;6.574;2022-10-04T23:49:27;15.00;99.90
57753;DHT22;43583;53.132;6.574;2022-10-04T23:51:59;15.00;99.90
57753;DHT22;43583;53.132;6.574;2022-10-04T23:54:27;15.00;99.90
57753;DHT22;43583;53.132;6.574;2022-10-04T23:56:53;15.00;99.90
57753;DHT22;43583;53.132;6.574;2022-10-04T23:59:21;15.00;99.90
